This is the latest recevied weather packets stored in our database for station/object HB9TJM-8. If no packets are shown the sender has not sent any weather packets the latest 10 day(s).
| Time | Temp. | Humidity | Pressure | Rain* | Wind** | Luminosity | Snow |
|---|---|---|---|---|---|---|---|
| 1777770957 | 12.78° C | 62% | 1018.1 hPa | 0 mm | - | 0 W/m² | - |
| 1777770957 | 12.78° C | 62% | 1018.1 hPa | 0 mm | - | 0 W/m² | - |
| 1777769728 | 13.33° C | 60% | 1018 hPa | 0 mm | - | 0 W/m² | - |
| 1777769420 | 12.78° C | 61% | 1017.6 hPa | 0 mm | - | 0 W/m² | - |
| 1777766960 | 13.89° C | 60% | 1017.9 hPa | 0 mm | - | 0 W/m² | - |
| 1777765730 | 13.33° C | 63% | 1018.4 hPa | 0 mm | - | 0 W/m² | - |
| 1777765422 | 13.33° C | 63% | 1018.8 hPa | 0 mm | - | 0 W/m² | - |
| 1777764807 | 13.89° C | 61% | 1018.9 hPa | 0 mm | - | 0 W/m² | - |
| 1777764500 | 13.89° C | 61% | 1019 hPa | 0 mm | - | 0 W/m² | - |
| 1777761116 | 15° C | 52% | 1019 hPa | 0 mm | - | 0 W/m² | - |
| 1777760809 | 14.44° C | 54% | 1019.1 hPa | 0 mm | - | 0 W/m² | - |
| 1777760501 | 14.44° C | 55% | 1019.2 hPa | 0 mm | - | 0 W/m² | - |
| 1777760194 | 15° C | 53% | 1019 hPa | 0 mm | - | 0 W/m² | - |
| 1777759886 | 15° C | 54% | 1019 hPa | 0 mm | - | 0 W/m² | - |
| 1777759579 | 15° C | 53% | 1019.1 hPa | 0 mm | - | 0 W/m² | - |
| 1777759273 | 15° C | 53% | 1019 hPa | 0 mm | - | 0 W/m² | - |
| 1777758965 | 15° C | 55% | 1018.9 hPa | 0 mm | - | 0 W/m² | - |
| 1777758658 | 15° C | 54% | 1019.5 hPa | 0 mm | - | 0 W/m² | - |
| 1777757734 | 15° C | 53% | 1019.3 hPa | 0 mm | - | 0 W/m² | - |
| 1777757427 | 15° C | 53% | 1019.2 hPa | 0 mm | - | 0 W/m² | - |
| 1777757120 | 15° C | 54% | 1019 hPa | 0 mm | - | 0 W/m² | - |
| 1777756812 | 15° C | 53% | 1018.8 hPa | 0 mm | - | 0 W/m² | - |
| 1777756197 | 15° C | 54% | 1018.7 hPa | 0 mm | - | 0 W/m² | - |
| 1777755274 | 15° C | 56% | 1020 hPa | 0 mm | - | 0 W/m² | - |
| 1777754967 | 15° C | 56% | 1019.9 hPa | 0 mm | - | 0 W/m² | - |
* Rain latest hour (hover to see other rain measurements)
** Current wind speed in m/s (hover to see current wind gust speed)